Main page
METAR-TAF:

METAR-TAF

Airports :

Sania Ramel Airport

Tétouan, Morocco

latitude: 35-35N, longitude: 005-20W, elevation: 10 m

Current weather observation

The report was made 39 minutes ago, at 12:00 UTC
Wind 12 kt from the West/Southwest, varying between South/Southwest and West
Temperature 17°C
Humidity 68%
Pressure 1015 hPa
Visibility 10 km or more
Broken clouds at a height of 2000 ft

METAR: GMTN 081200Z 25012KT 210V280 9999 BKN020 17/11 Q1015 NOSIG

Time: 13:39 (12:39 UTC)


TAF: missing

Weather observations and forecasts of more than 4000 airports (METAR and TAF reports).

The available stations are represented by yellow and red dots on the map.

Hover mouse over dot to see the name of the station.

Then click to see weather observations and forecasts.

To change the map : click on the green buttons with a black cross to zoom in, on the green button with a dash to zoom out, or on the green arrows for adjacent maps.


METAR-TAF: